createdAt,value
2023-03-29T00:00:41.201Z,37.70
2023-03-29T00:01:41.251Z,37.69
2023-03-29T00:02:41.332Z,37.69
2023-03-29T00:03:41.373Z,37.68
2023-03-29T00:04:41.417Z,37.68
2023-03-29T00:05:41.398Z,37.69
2023-03-29T00:06:41.394Z,37.70
2023-03-29T00:07:41.392Z,37.67
2023-03-29T00:08:41.423Z,37.65
2023-03-29T00:09:41.416Z,37.66
2023-03-29T00:10:41.434Z,37.65
2023-03-29T00:11:41.458Z,37.67
2023-03-29T00:12:41.481Z,37.63
2023-03-29T00:13:41.508Z,37.62
2023-03-29T00:14:41.546Z,37.64
2023-03-29T00:15:41.580Z,37.63
2023-03-29T00:16:41.670Z,37.64
2023-03-29T00:17:41.691Z,37.63
2023-03-29T00:18:41.628Z,37.64
2023-03-29T00:19:41.619Z,37.63
2023-03-29T00:20:41.599Z,37.60
2023-03-29T00:21:41.569Z,37.62
2023-03-29T00:22:41.535Z,37.62
2023-03-29T00:23:42.102Z,37.63
2023-03-29T00:24:41.486Z,37.62
2023-03-29T00:25:41.468Z,37.60
2023-03-29T00:26:41.435Z,37.61
2023-03-29T00:27:41.481Z,37.62
2023-03-29T00:28:41.503Z,37.61
2023-03-29T00:29:41.526Z,37.60
2023-03-29T00:30:41.552Z,37.58
2023-03-29T00:31:41.602Z,37.59
2023-03-29T00:32:41.701Z,37.59
2023-03-29T00:33:41.623Z,37.59
2023-03-29T00:34:41.631Z,37.57
2023-03-29T00:35:41.655Z,37.57
2023-03-29T00:36:41.647Z,37.56
2023-03-29T00:37:41.674Z,37.57
2023-03-29T00:38:41.676Z,37.58
2023-03-29T00:39:41.689Z,37.55
2023-03-29T00:40:41.704Z,37.55
2023-03-29T00:41:41.738Z,37.54
2023-03-29T00:42:41.770Z,37.54
2023-03-29T00:43:41.776Z,37.51
2023-03-29T00:44:41.783Z,37.54
2023-03-29T00:45:41.809Z,37.51
2023-03-29T00:46:41.818Z,37.50
2023-03-29T00:47:41.837Z,37.52
2023-03-29T00:48:41.799Z,37.50
2023-03-29T00:49:41.811Z,37.50
2023-03-29T00:50:41.856Z,37.49
2023-03-29T00:51:41.878Z,37.50
2023-03-29T00:52:41.928Z,37.48
2023-03-29T00:53:42.614Z,37.48
2023-03-29T00:54:42.001Z,37.47
2023-03-29T00:55:42.000Z,37.48
2023-03-29T00:56:42.050Z,37.50
2023-03-29T00:57:42.035Z,37.49
2023-03-29T00:58:42.043Z,37.48
2023-03-29T00:59:42.058Z,37.48
2023-03-29T01:00:42.054Z,37.47
2023-03-29T01:01:42.206Z,37.49
2023-03-29T01:02:42.067Z,37.45
2023-03-29T01:03:42.090Z,37.45
2023-03-29T01:04:42.017Z,37.42
2023-03-29T01:05:42.041Z,37.46
2023-03-29T01:06:42.115Z,37.42
2023-03-29T01:07:42.089Z,37.41
2023-03-29T01:08:42.119Z,37.42
2023-03-29T01:09:42.136Z,37.41
2023-03-29T01:10:42.171Z,37.42
2023-03-29T01:11:42.325Z,37.42
2023-03-29T01:12:42.195Z,37.42
2023-03-29T01:13:42.197Z,37.40
2023-03-29T01:14:42.191Z,37.38
2023-03-29T01:15:42.187Z,37.41
2023-03-29T01:16:42.207Z,37.39
2023-03-29T01:17:42.205Z,37.38
2023-03-29T01:18:42.190Z,37.37
2023-03-29T01:19:43.119Z,37.38
2023-03-29T01:20:42.175Z,37.37
2023-03-29T01:21:42.232Z,37.36
2023-03-29T01:22:42.245Z,37.36
2023-03-29T01:23:42.224Z,37.35
2023-03-29T01:24:42.263Z,37.34
2023-03-29T01:25:42.232Z,37.35
2023-03-29T01:26:42.260Z,37.35
2023-03-29T01:27:42.258Z,37.33
2023-03-29T01:28:42.255Z,37.32
2023-03-29T01:29:42.271Z,37.31
2023-03-29T01:30:42.293Z,37.31
2023-03-29T01:31:42.330Z,37.32
2023-03-29T01:32:42.346Z,37.29
2023-03-29T01:33:42.309Z,37.30
2023-03-29T01:34:42.306Z,37.32
2023-03-29T01:35:42.308Z,37.30
2023-03-29T01:36:42.275Z,37.30
2023-03-29T01:37:42.269Z,37.29
2023-03-29T01:38:42.276Z,37.30
2023-03-29T01:39:42.270Z,37.31
2023-03-29T01:40:42.301Z,37.29
2023-03-29T01:41:42.288Z,37.27
2023-03-29T01:42:42.281Z,37.27
2023-03-29T01:43:42.295Z,37.29
2023-03-29T01:44:42.318Z,37.28
2023-03-29T01:45:42.318Z,37.27
2023-03-29T01:46:42.302Z,37.27
2023-03-29T01:47:42.356Z,37.25
2023-03-29T01:48:42.316Z,37.27
2023-03-29T01:49:42.362Z,37.25
2023-03-29T01:50:42.289Z,37.26
2023-03-29T01:51:42.306Z,37.23
2023-03-29T01:52:42.362Z,37.23
2023-03-29T01:53:42.393Z,37.25
2023-03-29T01:54:42.443Z,37.22
2023-03-29T01:55:42.460Z,37.21
2023-03-29T01:56:42.530Z,37.20
2023-03-29T01:57:42.554Z,37.19
2023-03-29T01:58:42.721Z,37.18
2023-03-29T01:59:42.684Z,37.20
2023-03-29T02:00:43.629Z,37.19
2023-03-29T02:01:42.835Z,37.18
2023-03-29T02:02:42.948Z,37.20
2023-03-29T02:03:42.929Z,37.17
2023-03-29T02:04:42.860Z,37.17
2023-03-29T02:05:42.905Z,37.17
2023-03-29T02:06:42.959Z,37.16
2023-03-29T02:07:43.000Z,37.16
2023-03-29T02:08:43.011Z,37.13
2023-03-29T02:09:43.044Z,37.14
2023-03-29T02:10:43.060Z,37.13
2023-03-29T02:11:43.100Z,37.13
2023-03-29T02:12:43.175Z,37.11
2023-03-29T02:13:43.154Z,37.11
2023-03-29T02:14:43.200Z,37.13
2023-03-29T02:15:43.272Z,37.13
2023-03-29T02:16:43.298Z,37.09
2023-03-29T02:17:43.382Z,37.10
2023-03-29T02:18:43.410Z,37.08
2023-03-29T02:19:43.472Z,37.10
2023-03-29T02:20:43.508Z,37.10
2023-03-29T02:21:43.560Z,37.10
2023-03-29T02:22:43.680Z,37.10
2023-03-29T02:23:43.647Z,37.10
2023-03-29T02:24:43.696Z,37.09
2023-03-29T02:25:43.753Z,37.08
2023-03-29T02:26:43.799Z,37.07
2023-03-29T02:27:43.865Z,37.07
2023-03-29T02:28:43.907Z,37.09
2023-03-29T02:29:43.930Z,37.06
2023-03-29T02:30:43.998Z,37.07
2023-03-29T02:31:44.050Z,37.05
2023-03-29T02:32:44.135Z,37.06
2023-03-29T02:33:44.151Z,37.04
2023-03-29T02:34:44.189Z,37.04
2023-03-29T02:35:45.199Z,37.02
2023-03-29T02:36:44.273Z,37.03
2023-03-29T02:37:44.316Z,37.03
2023-03-29T02:38:44.370Z,37.03
2023-03-29T02:39:44.414Z,37.03
2023-03-29T02:40:44.454Z,37.00
2023-03-29T02:41:44.512Z,37.03
2023-03-29T02:42:45.133Z,37.01
2023-03-29T02:43:44.599Z,37.01
2023-03-29T02:44:44.630Z,36.98
2023-03-29T02:45:44.681Z,37.01
2023-03-29T02:46:44.745Z,37.02
2023-03-29T02:47:44.778Z,37.00
2023-03-29T02:48:44.824Z,37.02
2023-03-29T02:49:44.865Z,36.98
2023-03-29T02:50:44.915Z,37.00
2023-03-29T02:51:44.962Z,37.00
2023-03-29T02:52:45.018Z,36.97
2023-03-29T02:53:45.064Z,36.96
2023-03-29T02:54:45.104Z,36.98
2023-03-29T02:55:45.141Z,36.98
2023-03-29T02:56:45.251Z,36.97
2023-03-29T02:57:45.232Z,36.96
2023-03-29T02:58:45.253Z,36.96
2023-03-29T02:59:45.287Z,36.95
2023-03-29T03:00:45.313Z,36.96
2023-03-29T03:01:45.410Z,36.95
2023-03-29T03:02:45.419Z,36.95
2023-03-29T03:03:45.558Z,36.95
2023-03-29T03:04:45.495Z,36.95
2023-03-29T03:05:45.532Z,36.92
2023-03-29T03:06:45.593Z,36.92
2023-03-29T03:07:45.622Z,36.93
2023-03-29T03:08:45.674Z,36.93
2023-03-29T03:09:45.722Z,36.91
2023-03-29T03:10:45.779Z,36.90
2023-03-29T03:11:45.835Z,36.90
2023-03-29T03:12:45.871Z,36.89
2023-03-29T03:13:45.920Z,36.91
2023-03-29T03:14:45.968Z,36.91
2023-03-29T03:15:46.009Z,36.89
2023-03-29T03:16:46.141Z,36.88
2023-03-29T03:17:46.126Z,36.89
2023-03-29T03:18:46.170Z,36.89
2023-03-29T03:19:46.217Z,36.85
2023-03-29T03:20:46.252Z,36.87
2023-03-29T03:21:46.300Z,36.89
2023-03-29T03:22:46.351Z,36.86
2023-03-29T03:23:46.393Z,36.87
2023-03-29T03:24:46.461Z,36.85
2023-03-29T03:25:46.498Z,36.84
2023-03-29T03:26:46.557Z,36.85
2023-03-29T03:27:46.588Z,36.85
2023-03-29T03:28:46.641Z,36.84
2023-03-29T03:29:46.688Z,36.85
2023-03-29T03:30:46.741Z,36.83
2023-03-29T03:31:46.812Z,36.84
2023-03-29T03:32:46.857Z,36.82
2023-03-29T03:33:46.882Z,36.83
2023-03-29T03:34:46.930Z,36.81
2023-03-29T03:35:46.981Z,36.81
2023-03-29T03:36:47.037Z,36.81
2023-03-29T03:37:47.063Z,36.79
2023-03-29T03:38:47.117Z,36.82
2023-03-29T03:39:47.179Z,36.83
2023-03-29T03:40:47.216Z,36.80
2023-03-29T03:41:47.276Z,36.81
2023-03-29T03:42:47.315Z,36.81
2023-03-29T03:43:47.373Z,36.81
2023-03-29T03:44:47.428Z,36.79
2023-03-29T03:45:47.570Z,36.79
2023-03-29T03:46:47.527Z,36.80
2023-03-29T03:47:47.608Z,36.77
2023-03-29T03:48:47.640Z,36.78
2023-03-29T03:49:47.659Z,36.77
2023-03-29T03:50:47.715Z,36.78
2023-03-29T03:51:47.764Z,36.78
2023-03-29T03:52:47.809Z,36.76
2023-03-29T03:53:47.872Z,36.74
2023-03-29T03:54:47.913Z,36.74
2023-03-29T03:55:47.973Z,36.72
2023-03-29T03:56:48.038Z,36.75
2023-03-29T03:57:48.132Z,36.73
2023-03-29T03:58:49.668Z,36.72
2023-03-29T03:59:48.168Z,36.70
2023-03-29T04:00:48.221Z,36.72
2023-03-29T04:01:48.289Z,36.68
2023-03-29T04:02:48.426Z,36.70
2023-03-29T04:03:48.478Z,36.72
2023-03-29T04:04:48.404Z,36.69
2023-03-29T04:05:48.451Z,36.69
2023-03-29T04:06:48.493Z,36.71
2023-03-29T04:07:48.550Z,36.69
2023-03-29T04:08:48.590Z,36.71
2023-03-29T04:09:48.647Z,36.69
2023-03-29T04:10:48.681Z,36.68
2023-03-29T04:11:48.729Z,36.69
2023-03-29T04:12:48.780Z,36.66
2023-03-29T04:13:48.815Z,36.66
2023-03-29T04:14:49.172Z,36.67
2023-03-29T04:15:48.954Z,36.66
2023-03-29T04:16:48.955Z,36.66
2023-03-29T04:17:49.122Z,36.63
2023-03-29T04:18:49.698Z,36.67
2023-03-29T04:19:49.104Z,36.64
2023-03-29T04:20:49.149Z,36.66
2023-03-29T04:21:49.212Z,36.65
2023-03-29T04:22:50.163Z,36.67
2023-03-29T04:23:49.297Z,36.63
2023-03-29T04:24:49.352Z,36.65
2023-03-29T04:25:49.391Z,36.62
2023-03-29T04:26:49.432Z,36.63
2023-03-29T04:27:49.508Z,36.63
2023-03-29T04:28:51.172Z,36.60
2023-03-29T04:29:49.597Z,36.60
2023-03-29T04:30:49.680Z,36.62
2023-03-29T04:31:49.760Z,36.63
2023-03-29T04:32:49.794Z,36.59
2023-03-29T04:33:49.789Z,36.60
2023-03-29T04:34:49.836Z,36.59
2023-03-29T04:35:49.926Z,36.60
2023-03-29T04:36:49.919Z,36.57
2023-03-29T04:37:49.955Z,36.59
2023-03-29T04:38:49.987Z,36.59
2023-03-29T04:39:50.031Z,36.56
2023-03-29T04:40:50.075Z,36.60
2023-03-29T04:41:50.126Z,36.60
2023-03-29T04:42:50.173Z,36.60
2023-03-29T04:43:50.685Z,36.59
2023-03-29T04:44:50.312Z,36.58
2023-03-29T04:45:50.338Z,36.56
2023-03-29T04:46:50.406Z,36.57
2023-03-29T04:47:50.419Z,36.56
2023-03-29T04:48:50.446Z,36.58
2023-03-29T04:49:50.485Z,36.54
2023-03-29T04:50:50.524Z,36.54
2023-03-29T04:51:50.584Z,36.54
2023-03-29T04:52:50.623Z,36.55
2023-03-29T04:53:50.665Z,36.53
2023-03-29T04:54:50.719Z,36.56
2023-03-29T04:55:51.678Z,36.57
2023-03-29T04:56:50.878Z,36.52
2023-03-29T04:57:50.863Z,36.52
2023-03-29T04:58:50.919Z,36.54
2023-03-29T04:59:50.967Z,36.55
2023-03-29T05:00:51.009Z,36.54
2023-03-29T05:01:51.104Z,36.53
2023-03-29T05:02:51.171Z,36.51
2023-03-29T05:03:51.199Z,36.52
2023-03-29T05:04:51.220Z,36.51
2023-03-29T05:05:51.276Z,36.50
2023-03-29T05:06:52.184Z,36.49
2023-03-29T05:07:51.355Z,36.53
2023-03-29T05:08:51.418Z,36.52
2023-03-29T05:09:51.444Z,36.51
2023-03-29T05:10:51.502Z,36.50
2023-03-29T05:11:51.546Z,36.51
2023-03-29T05:12:51.603Z,36.48
2023-03-29T05:13:51.638Z,36.52
2023-03-29T05:14:51.718Z,36.46
2023-03-29T05:15:51.780Z,36.50
2023-03-29T05:16:51.787Z,36.48
2023-03-29T05:17:51.903Z,36.47
2023-03-29T05:18:51.879Z,36.45
2023-03-29T05:19:51.951Z,36.44
2023-03-29T05:20:51.973Z,36.41
2023-03-29T05:21:52.012Z,36.34
2023-03-29T05:22:52.057Z,36.41
2023-03-29T05:23:52.096Z,36.22
2023-03-29T05:24:52.146Z,36.45
2023-03-29T05:25:52.189Z,36.42
2023-03-29T05:26:52.247Z,36.87
2023-03-29T05:27:52.274Z,37.40
2023-03-29T05:28:52.292Z,37.38
2023-03-29T05:29:52.313Z,37.36
2023-03-29T05:30:52.308Z,37.36
2023-03-29T05:31:52.500Z,37.41
2023-03-29T05:32:52.409Z,37.33
2023-03-29T05:33:52.384Z,37.21
2023-03-29T05:34:52.413Z,37.17
2023-03-29T05:35:52.557Z,37.15
2023-03-29T05:36:52.498Z,37.20
2023-03-29T05:37:52.567Z,37.25
2023-03-29T05:38:52.548Z,37.27
2023-03-29T05:39:52.756Z,37.34
2023-03-29T05:40:52.704Z,37.37
2023-03-29T05:41:52.667Z,37.41
2023-03-29T05:42:52.701Z,37.46
2023-03-29T05:43:52.759Z,37.47
2023-03-29T05:44:54.485Z,37.47
2023-03-29T05:45:52.871Z,37.49
2023-03-29T05:46:52.860Z,37.50
2023-03-29T05:47:52.956Z,37.50
2023-03-29T05:48:52.937Z,37.55
2023-03-29T05:49:52.981Z,37.56
2023-03-29T05:50:53.027Z,37.58
2023-03-29T05:51:53.063Z,37.57
2023-03-29T05:52:53.138Z,37.59
2023-03-29T05:53:53.158Z,37.61
2023-03-29T05:54:54.110Z,37.64
2023-03-29T05:55:53.236Z,37.64
2023-03-29T05:56:53.326Z,37.63
2023-03-29T05:57:53.324Z,37.64
2023-03-29T05:58:54.960Z,37.66
2023-03-29T05:59:53.434Z,37.66
2023-03-29T06:00:53.458Z,37.70
2023-03-29T06:01:53.549Z,37.68
2023-03-29T06:02:53.584Z,37.65
2023-03-29T06:03:53.687Z,37.70
2023-03-29T06:04:53.627Z,37.70
2023-03-29T06:05:53.640Z,37.68
2023-03-29T06:06:53.659Z,37.71
2023-03-29T06:07:53.707Z,37.74
2023-03-29T06:08:53.755Z,37.73
2023-03-29T06:09:53.789Z,37.74
2023-03-29T06:10:53.845Z,37.73
2023-03-29T06:11:53.878Z,37.72
2023-03-29T06:12:53.924Z,37.75
2023-03-29T06:13:53.977Z,37.74
2023-03-29T06:14:54.021Z,37.74
2023-03-29T06:15:54.071Z,37.75
2023-03-29T06:16:54.142Z,37.74
2023-03-29T06:17:54.228Z,37.74
2023-03-29T06:18:54.201Z,37.71
2023-03-29T06:19:54.224Z,37.73
2023-03-29T06:20:54.386Z,37.75
2023-03-29T06:21:54.275Z,37.73
2023-03-29T06:22:54.302Z,37.73
2023-03-29T06:23:54.356Z,37.76
2023-03-29T06:24:54.404Z,37.74
2023-03-29T06:25:54.444Z,37.90
2023-03-29T06:26:54.490Z,38.52
2023-03-29T06:27:54.546Z,39.07
2023-03-29T06:28:54.581Z,39.09
2023-03-29T06:29:54.607Z,39.40
2023-03-29T06:30:54.691Z,39.77
2023-03-29T06:31:54.658Z,40.12
2023-03-29T06:32:55.685Z,40.51
2023-03-29T06:33:54.661Z,40.92
2023-03-29T06:34:54.655Z,41.25
2023-03-29T06:35:54.712Z,41.18
2023-03-29T06:36:54.630Z,41.61
2023-03-29T06:37:54.858Z,41.78
2023-03-29T06:38:54.754Z,42.04
2023-03-29T06:39:54.817Z,42.14
2023-03-29T06:40:54.851Z,42.33
2023-03-29T06:41:54.861Z,42.48
2023-03-29T06:42:54.889Z,42.56
2023-03-29T06:43:55.071Z,42.69
2023-03-29T06:44:54.955Z,42.89
2023-03-29T06:45:55.044Z,43.00
2023-03-29T06:46:55.051Z,43.09
2023-03-29T06:47:55.068Z,43.25
2023-03-29T06:48:55.047Z,43.27
2023-03-29T06:49:55.063Z,43.43
2023-03-29T06:50:55.063Z,43.48
2023-03-29T06:51:55.074Z,43.55
2023-03-29T06:52:55.076Z,43.71
2023-03-29T06:53:55.085Z,43.82
2023-03-29T06:54:55.093Z,44.04
2023-03-29T06:55:55.185Z,44.13
2023-03-29T06:56:55.178Z,44.27
2023-03-29T06:57:55.055Z,44.31
2023-03-29T06:58:55.052Z,44.42
2023-03-29T06:59:55.200Z,44.52
2023-03-29T07:00:55.037Z,44.68
2023-03-29T07:01:55.090Z,44.82
2023-03-29T07:02:55.080Z,44.90
2023-03-29T07:03:55.006Z,44.89
2023-03-29T07:04:54.947Z,45.00
2023-03-29T07:05:54.936Z,45.18
2023-03-29T07:06:54.910Z,45.21
2023-03-29T07:07:54.886Z,45.32
2023-03-29T07:08:54.868Z,45.39
2023-03-29T07:09:54.848Z,45.51
2023-03-29T07:10:54.820Z,45.69
2023-03-29T07:11:54.770Z,45.81
2023-03-29T07:12:54.757Z,45.88
2023-03-29T07:13:54.723Z,45.93
2023-03-29T07:14:54.745Z,46.02
2023-03-29T07:15:54.668Z,46.16
2023-03-29T07:16:54.613Z,46.24
2023-03-29T07:17:55.271Z,46.81
2023-03-29T07:18:54.527Z,46.77
2023-03-29T07:19:54.499Z,46.75
2023-03-29T07:20:54.459Z,46.71
2023-03-29T07:21:54.436Z,46.69
2023-03-29T07:22:54.419Z,46.55
2023-03-29T07:23:54.375Z,46.61
2023-03-29T07:24:54.354Z,46.58
2023-03-29T07:25:54.329Z,46.63
2023-03-29T07:27:54.240Z,46.79
2023-03-29T07:28:54.179Z,46.83
2023-03-29T07:29:54.140Z,46.90
2023-03-29T07:30:54.100Z,46.96
2023-03-29T07:31:54.021Z,46.98
2023-03-29T07:32:53.991Z,47.02
2023-03-29T07:33:53.925Z,47.20
2023-03-29T07:34:53.858Z,47.22
2023-03-29T07:35:53.854Z,47.35
2023-03-29T07:36:53.768Z,47.50
2023-03-29T07:37:53.688Z,47.65
2023-03-29T07:38:56.374Z,47.71
2023-03-29T07:39:53.582Z,47.85
2023-03-29T07:40:53.526Z,47.90
2023-03-29T07:41:53.479Z,47.94
2023-03-29T07:42:53.421Z,48.13
2023-03-29T07:43:53.373Z,48.25
2023-03-29T07:44:53.324Z,48.31
2023-03-29T07:45:53.314Z,48.41
2023-03-29T07:46:53.217Z,48.49
2023-03-29T07:47:53.797Z,48.56
2023-03-29T07:48:53.099Z,48.69
2023-03-29T07:49:53.060Z,48.74
2023-03-29T07:50:52.996Z,48.83
2023-03-29T07:51:52.959Z,48.87
2023-03-29T07:52:52.902Z,49.00
2023-03-29T07:53:52.845Z,49.04
2023-03-29T07:54:52.814Z,49.20
2023-03-29T07:55:52.737Z,49.19
2023-03-29T07:56:52.735Z,49.25
2023-03-29T07:57:52.627Z,49.43
2023-03-29T07:58:52.573Z,49.44
2023-03-29T07:59:52.574Z,49.52
2023-03-29T08:00:52.445Z,49.64
2023-03-29T08:01:52.389Z,49.60
2023-03-29T08:02:52.405Z,49.72
2023-03-29T08:03:52.406Z,49.81
2023-03-29T08:04:52.231Z,49.83
2023-03-29T08:05:52.138Z,49.87
2023-03-29T08:06:52.081Z,49.87
2023-03-29T08:07:52.023Z,49.95
2023-03-29T08:08:51.958Z,50.01
2023-03-29T08:09:51.902Z,50.08
2023-03-29T08:10:52.733Z,50.24
2023-03-29T08:11:51.770Z,50.56
2023-03-29T08:12:52.675Z,50.67
2023-03-29T08:13:51.665Z,50.67
2023-03-29T08:14:52.236Z,50.50
2023-03-29T08:15:51.513Z,49.56
2023-03-29T08:16:51.490Z,48.11
2023-03-29T08:17:51.456Z,44.49
2023-03-29T08:18:51.350Z,44.28
2023-03-29T08:19:52.032Z,44.47
2023-03-29T08:20:51.212Z,44.17
2023-03-29T08:21:51.160Z,43.62
2023-03-29T08:22:51.105Z,41.06
2023-03-29T08:23:51.067Z,39.14
2023-03-29T08:24:51.056Z,37.71
2023-03-29T08:25:51.041Z,36.16
2023-03-29T08:26:51.071Z,35.41
2023-03-29T08:27:52.750Z,35.15
2023-03-29T08:28:51.128Z,34.97
2023-03-29T08:29:51.043Z,36.40
2023-03-29T08:30:51.068Z,37.19
2023-03-29T08:31:51.022Z,37.58
2023-03-29T08:32:53.607Z,37.67
2023-03-29T08:33:51.019Z,38.19
2023-03-29T08:34:50.979Z,38.32
2023-03-29T08:35:50.964Z,38.72
2023-03-29T08:36:50.915Z,39.19
2023-03-29T08:37:50.873Z,39.47
2023-03-29T08:38:50.837Z,39.78
2023-03-29T08:39:50.790Z,39.86
2023-03-29T08:40:50.750Z,39.96
2023-03-29T08:41:50.716Z,40.13
2023-03-29T08:42:50.702Z,40.39
2023-03-29T08:43:50.605Z,40.43
2023-03-29T08:44:50.546Z,40.65
2023-03-29T08:45:51.210Z,40.93
2023-03-29T08:46:50.487Z,41.08
2023-03-29T08:47:50.435Z,41.21
2023-03-29T08:48:50.408Z,41.32
2023-03-29T08:49:50.306Z,41.58
2023-03-29T08:50:50.255Z,41.72
2023-03-29T08:51:51.664Z,41.77
2023-03-29T08:52:50.144Z,41.89
2023-03-29T08:53:50.085Z,41.92
2023-03-29T08:54:50.029Z,41.97
2023-03-29T08:55:49.979Z,42.05
2023-03-29T08:56:49.927Z,42.18
2023-03-29T08:57:49.865Z,42.25
2023-03-29T08:58:49.784Z,42.28
2023-03-29T08:59:49.731Z,42.40
2023-03-29T09:00:49.675Z,42.47
2023-03-29T09:01:49.635Z,42.69
2023-03-29T09:02:49.607Z,42.76
2023-03-29T09:03:49.585Z,42.89
2023-03-29T09:04:50.452Z,42.98
2023-03-29T09:05:49.400Z,43.06
2023-03-29T09:06:50.257Z,43.18
2023-03-29T09:07:49.279Z,43.32
2023-03-29T09:08:49.225Z,43.41
2023-03-29T09:09:49.177Z,43.47
2023-03-29T09:10:49.115Z,43.54
2023-03-29T09:11:49.066Z,43.72
2023-03-29T09:12:49.035Z,42.59
2023-03-29T09:13:48.965Z,39.10
2023-03-29T09:14:48.896Z,39.37
2023-03-29T09:15:48.849Z,39.08
2023-03-29T09:16:48.814Z,39.10
2023-03-29T09:17:49.806Z,39.79
2023-03-29T09:18:48.817Z,39.57
2023-03-29T09:19:48.818Z,39.50
2023-03-29T09:20:48.891Z,39.57
2023-03-29T09:21:48.810Z,39.91
2023-03-29T09:22:48.812Z,40.22
2023-03-29T09:23:48.818Z,40.35
2023-03-29T09:24:48.833Z,40.37
2023-03-29T09:25:53.394Z,40.45
2023-03-29T09:26:49.777Z,40.52
2023-03-29T09:27:48.724Z,40.54
2023-03-29T09:28:48.676Z,40.55
2023-03-29T09:29:48.615Z,40.62
2023-03-29T09:30:48.603Z,40.65
2023-03-29T09:31:48.549Z,40.69
2023-03-29T09:32:48.497Z,40.72
2023-03-29T09:33:48.423Z,40.76
2023-03-29T09:34:48.379Z,40.75
2023-03-29T09:35:48.353Z,40.79
2023-03-29T09:36:48.344Z,40.84
2023-03-29T09:37:48.339Z,40.87
2023-03-29T09:38:48.367Z,40.88
2023-03-29T09:39:49.273Z,40.93
2023-03-29T09:40:48.415Z,40.96
2023-03-29T09:41:48.399Z,40.99
2023-03-29T09:42:48.412Z,40.96
2023-03-29T09:43:48.431Z,40.95
2023-03-29T09:44:48.469Z,41.01
2023-03-29T09:45:48.521Z,41.01
2023-03-29T09:46:48.518Z,41.05
2023-03-29T09:47:48.586Z,41.02
2023-03-29T09:48:48.556Z,41.01
2023-03-29T09:49:48.591Z,41.04
2023-03-29T09:50:48.610Z,41.04
2023-03-29T09:51:48.618Z,41.03
2023-03-29T09:52:48.652Z,41.03
2023-03-29T09:53:48.684Z,41.02
2023-03-29T09:54:48.705Z,41.03
2023-03-29T09:55:50.358Z,41.00
2023-03-29T09:56:48.839Z,41.02
2023-03-29T09:57:48.776Z,41.03
2023-03-29T09:58:48.828Z,41.02
2023-03-29T09:59:48.816Z,41.02
2023-03-29T10:00:48.908Z,41.04
2023-03-29T10:01:48.946Z,41.01
2023-03-29T10:02:48.989Z,41.01
2023-03-29T10:03:49.016Z,41.01
2023-03-29T10:04:48.936Z,41.02
2023-03-29T10:05:48.892Z,41.02
2023-03-29T10:06:48.880Z,41.02
2023-03-29T10:07:48.836Z,41.02
2023-03-29T10:08:48.800Z,41.01
2023-03-29T10:09:48.756Z,41.03
2023-03-29T10:10:48.718Z,41.01
2023-03-29T10:11:48.678Z,41.00
2023-03-29T10:12:48.641Z,41.01
2023-03-29T10:13:48.659Z,41.00
2023-03-29T10:14:49.490Z,40.98
2023-03-29T10:15:48.718Z,41.01
2023-03-29T10:16:48.859Z,41.01
2023-03-29T10:17:48.865Z,41.00
2023-03-29T10:18:48.819Z,41.01
2023-03-29T10:19:48.849Z,41.01
2023-03-29T10:20:48.880Z,40.99
2023-03-29T10:21:48.908Z,40.98
2023-03-29T10:22:48.917Z,40.99
2023-03-29T10:23:48.947Z,40.97
2023-03-29T10:24:48.973Z,40.96
2023-03-29T10:25:48.983Z,40.94
2023-03-29T10:26:48.979Z,40.97
2023-03-29T10:27:49.009Z,40.93
2023-03-29T10:28:49.010Z,40.93
2023-03-29T10:29:49.046Z,40.91
2023-03-29T10:30:49.050Z,40.90
2023-03-29T10:31:49.106Z,40.89
2023-03-29T10:32:49.136Z,40.89
2023-03-29T10:33:49.131Z,40.89
2023-03-29T10:34:49.141Z,40.90
2023-03-29T10:35:49.196Z,40.87
2023-03-29T10:36:49.124Z,40.85
2023-03-29T10:37:49.127Z,40.85
2023-03-29T10:38:49.163Z,40.86
2023-03-29T10:39:49.227Z,40.83
2023-03-29T10:40:49.190Z,40.84
2023-03-29T10:41:49.183Z,40.83
2023-03-29T10:42:49.177Z,40.83
2023-03-29T10:43:49.209Z,40.83
2023-03-29T10:44:49.186Z,40.82
2023-03-29T10:45:49.306Z,40.82
2023-03-29T10:46:49.202Z,40.82
2023-03-29T10:47:49.216Z,40.79
2023-03-29T10:48:49.213Z,40.79
2023-03-29T10:49:50.874Z,40.79
2023-03-29T10:50:49.704Z,40.80
2023-03-29T10:51:49.162Z,40.80
2023-03-29T10:52:49.155Z,40.78
2023-03-29T10:53:49.169Z,40.77
2023-03-29T10:54:49.153Z,40.77
2023-03-29T10:55:49.142Z,40.77
2023-03-29T10:56:50.824Z,40.77
2023-03-29T10:57:49.109Z,40.78
2023-03-29T10:58:49.094Z,40.73
2023-03-29T10:59:49.046Z,40.75
2023-03-29T11:00:49.001Z,40.72
2023-03-29T11:01:48.994Z,40.73
2023-03-29T11:02:49.034Z,40.72
2023-03-29T11:03:49.036Z,40.70
2023-03-29T11:04:48.897Z,40.71
2023-03-29T11:05:48.855Z,40.69
2023-03-29T11:06:48.796Z,40.70
2023-03-29T11:07:48.767Z,40.68
2023-03-29T11:08:48.745Z,40.65
2023-03-29T11:09:48.716Z,40.64
2023-03-29T11:10:48.651Z,40.62
2023-03-29T11:11:48.610Z,40.61
2023-03-29T11:12:48.577Z,40.57
2023-03-29T11:13:48.542Z,40.56
2023-03-29T11:14:48.502Z,40.57
2023-03-29T11:15:48.525Z,40.53
2023-03-29T11:16:48.436Z,40.54
2023-03-29T11:17:48.423Z,40.52
2023-03-29T11:18:48.363Z,40.48
2023-03-29T11:19:48.316Z,40.49
2023-03-29T11:20:48.277Z,40.46
2023-03-29T11:21:48.247Z,40.45
2023-03-29T11:22:48.209Z,40.45
2023-03-29T11:23:48.180Z,40.41
2023-03-29T11:24:48.795Z,40.43
2023-03-29T11:25:48.112Z,40.42
2023-03-29T11:26:48.059Z,40.39
2023-03-29T11:27:48.027Z,40.43
2023-03-29T11:28:48.001Z,40.40
2023-03-29T11:29:47.954Z,40.39
2023-03-29T11:30:48.151Z,40.38
2023-03-29T11:31:47.973Z,40.41
2023-03-29T11:32:47.914Z,40.40
2023-03-29T11:33:47.811Z,40.39
2023-03-29T11:34:47.770Z,40.38
2023-03-29T11:35:47.766Z,40.38
2023-03-29T11:36:47.700Z,40.36
2023-03-29T11:37:47.670Z,40.38
2023-03-29T11:38:47.630Z,40.39
2023-03-29T11:39:47.585Z,40.38
2023-03-29T11:40:47.560Z,40.35
2023-03-29T11:41:47.523Z,40.36
2023-03-29T11:42:47.498Z,40.38
2023-03-29T11:43:47.470Z,40.37
2023-03-29T11:44:47.459Z,40.40
2023-03-29T11:45:47.459Z,40.42
2023-03-29T11:46:47.382Z,40.39
2023-03-29T11:47:47.353Z,40.39
2023-03-29T11:48:47.270Z,40.40
2023-03-29T11:49:47.223Z,40.37
2023-03-29T11:50:47.238Z,40.38
2023-03-29T11:51:47.196Z,40.39
2023-03-29T11:52:47.190Z,40.39
2023-03-29T11:53:47.145Z,40.40
2023-03-29T11:54:47.122Z,40.39
2023-03-29T11:55:47.102Z,40.40
2023-03-29T11:56:47.109Z,40.39
2023-03-29T11:57:47.064Z,40.37
2023-03-29T11:58:47.029Z,40.38
2023-03-29T11:59:46.999Z,40.36
2023-03-29T12:00:46.970Z,40.35
2023-03-29T12:01:46.941Z,40.37
2023-03-29T12:02:47.116Z,40.38
2023-03-29T12:03:47.451Z,40.38
2023-03-29T12:04:47.023Z,40.35
2023-03-29T12:05:46.985Z,40.34
2023-03-29T12:06:46.974Z,40.35
2023-03-29T12:07:46.940Z,40.34
2023-03-29T12:08:46.934Z,40.34
2023-03-29T12:09:46.960Z,40.33
2023-03-29T12:10:47.003Z,40.33
2023-03-29T12:11:47.078Z,40.32
2023-03-29T12:12:47.133Z,40.32
2023-03-29T12:13:47.103Z,40.29
2023-03-29T12:14:47.083Z,40.28
2023-03-29T12:15:47.040Z,40.30
2023-03-29T12:16:47.110Z,40.30
2023-03-29T12:17:47.048Z,40.27
2023-03-29T12:18:47.010Z,40.27
2023-03-29T12:19:47.153Z,40.27
2023-03-29T12:20:47.057Z,40.23
2023-03-29T12:21:47.022Z,40.24
2023-03-29T12:22:47.000Z,40.22
2023-03-29T12:23:46.974Z,40.23
2023-03-29T12:24:46.949Z,40.19
2023-03-29T12:25:46.980Z,40.19
2023-03-29T12:26:47.072Z,40.19
2023-03-29T12:27:47.104Z,40.21
2023-03-29T12:28:47.184Z,40.18
2023-03-29T12:29:47.169Z,40.18
2023-03-29T12:30:47.125Z,40.18
2023-03-29T12:31:47.117Z,40.17
2023-03-29T12:32:47.128Z,40.17
2023-03-29T12:33:47.072Z,40.20
2023-03-29T12:34:47.110Z,40.18
2023-03-29T12:35:47.190Z,40.17
2023-03-29T12:36:47.264Z,40.18
2023-03-29T12:37:47.326Z,40.17
2023-03-29T12:38:47.408Z,40.12
2023-03-29T12:39:47.387Z,40.12
2023-03-29T12:40:47.354Z,40.11
2023-03-29T12:41:47.336Z,40.11
2023-03-29T12:42:47.813Z,40.10
2023-03-29T12:43:47.284Z,40.11
2023-03-29T12:44:47.254Z,40.11
2023-03-29T12:45:47.273Z,40.11
2023-03-29T12:46:47.294Z,40.10
2023-03-29T12:47:47.262Z,40.10
2023-03-29T12:48:47.188Z,40.10
2023-03-29T12:49:47.170Z,40.10
2023-03-29T12:50:47.153Z,40.09
2023-03-29T12:51:47.119Z,40.08
2023-03-29T12:52:47.095Z,40.09
2023-03-29T12:53:47.072Z,40.07